sensor_id;sensor_type;location;lat;lon;timestamp;P1;durP1;ratioP1;P2;durP2;ratioP2
77362;SDS011;66428;47.322;9.432;2023-04-08T00:01:53;2.53;;;1.70;;
77362;SDS011;66428;47.322;9.432;2023-04-08T00:04:25;2.53;;;1.83;;
77362;SDS011;66428;47.322;9.432;2023-04-08T00:06:56;2.85;;;1.70;;
77362;SDS011;66428;47.322;9.432;2023-04-08T00:09:23;2.25;;;1.50;;
77362;SDS011;66428;47.322;9.432;2023-04-08T00:11:50;2.40;;;1.48;;
77362;SDS011;66428;47.322;9.432;2023-04-08T00:14:24;2.83;;;1.80;;
77362;SDS011;66428;47.322;9.432;2023-04-08T00:16:51;2.00;;;1.20;;
77362;SDS011;66428;47.322;9.432;2023-04-08T00:19:20;1.92;;;1.45;;
77362;SDS011;66428;47.322;9.432;2023-04-08T00:21:49;2.03;;;1.48;;
77362;SDS011;66428;47.322;9.432;2023-04-08T00:24:21;2.60;;;1.63;;
77362;SDS011;66428;47.322;9.432;2023-04-08T00:26:47;2.38;;;1.73;;
77362;SDS011;66428;47.322;9.432;2023-04-08T00:29:13;2.50;;;1.60;;
77362;SDS011;66428;47.322;9.432;2023-04-08T00:31:42;1.92;;;1.50;;
77362;SDS011;66428;47.322;9.432;2023-04-08T00:36:35;2.55;;;1.77;;
77362;SDS011;66428;47.322;9.432;2023-04-08T00:41:32;2.33;;;1.45;;
77362;SDS011;66428;47.322;9.432;2023-04-08T00:44:06;2.10;;;1.63;;
77362;SDS011;66428;47.322;9.432;2023-04-08T00:46:41;2.20;;;1.50;;
77362;SDS011;66428;47.322;9.432;2023-04-08T00:49:07;2.13;;;1.58;;
77362;SDS011;66428;47.322;9.432;2023-04-08T00:51:35;4.18;;;1.67;;
77362;SDS011;66428;47.322;9.432;2023-04-08T00:54:06;2.47;;;1.63;;
77362;SDS011;66428;47.322;9.432;2023-04-08T00:56:33;2.67;;;1.90;;
77362;SDS011;66428;47.322;9.432;2023-04-08T00:59:02;2.80;;;1.80;;
77362;SDS011;66428;47.322;9.432;2023-04-08T01:01:42;2.80;;;1.73;;
77362;SDS011;66428;47.322;9.432;2023-04-08T01:11:50;2.65;;;1.77;;
77362;SDS011;66428;47.322;9.432;2023-04-08T01:14:22;2.50;;;2.05;;
77362;SDS011;66428;47.322;9.432;2023-04-08T01:16:50;2.55;;;1.60;;
77362;SDS011;66428;47.322;9.432;2023-04-08T01:19:26;2.60;;;1.63;;
77362;SDS011;66428;47.322;9.432;2023-04-08T01:21:54;2.15;;;1.60;;
77362;SDS011;66428;47.322;9.432;2023-04-08T01:24:29;2.20;;;1.55;;
77362;SDS011;66428;47.322;9.432;2023-04-08T01:26:58;2.88;;;1.67;;
77362;SDS011;66428;47.322;9.432;2023-04-08T01:29:27;1.98;;;1.40;;
77362;SDS011;66428;47.322;9.432;2023-04-08T01:31:55;2.42;;;1.70;;
77362;SDS011;66428;47.322;9.432;2023-04-08T01:34:26;2.55;;;2.03;;
77362;SDS011;66428;47.322;9.432;2023-04-08T01:36:55;2.80;;;2.10;;
77362;SDS011;66428;47.322;9.432;2023-04-08T01:39:24;3.67;;;2.08;;
77362;SDS011;66428;47.322;9.432;2023-04-08T01:41:54;2.78;;;2.10;;
77362;SDS011;66428;47.322;9.432;2023-04-08T01:44:22;2.92;;;2.10;;
77362;SDS011;66428;47.322;9.432;2023-04-08T01:46:52;2.97;;;1.95;;
77362;SDS011;66428;47.322;9.432;2023-04-08T01:49:24;3.63;;;2.13;;
77362;SDS011;66428;47.322;9.432;2023-04-08T01:51:54;2.42;;;1.67;;
77362;SDS011;66428;47.322;9.432;2023-04-08T01:54:22;2.95;;;1.92;;
77362;SDS011;66428;47.322;9.432;2023-04-08T01:56:51;3.00;;;2.08;;
77362;SDS011;66428;47.322;9.432;2023-04-08T01:59:19;2.45;;;1.60;;
77362;SDS011;66428;47.322;9.432;2023-04-08T02:01:46;3.17;;;2.53;;
77362;SDS011;66428;47.322;9.432;2023-04-08T02:04:13;2.88;;;1.83;;
77362;SDS011;66428;47.322;9.432;2023-04-08T02:06:43;2.75;;;1.83;;
77362;SDS011;66428;47.322;9.432;2023-04-08T02:09:15;2.38;;;1.58;;
77362;SDS011;66428;47.322;9.432;2023-04-08T02:11:42;3.33;;;1.80;;
77362;SDS011;66428;47.322;9.432;2023-04-08T02:14:11;2.92;;;2.17;;
77362;SDS011;66428;47.322;9.432;2023-04-08T02:16:52;2.78;;;2.22;;
77362;SDS011;66428;47.322;9.432;2023-04-08T02:19:24;2.55;;;1.83;;
77362;SDS011;66428;47.322;9.432;2023-04-08T02:22:01;3.00;;;1.90;;
77362;SDS011;66428;47.322;9.432;2023-04-08T02:24:35;2.92;;;1.77;;
77362;SDS011;66428;47.322;9.432;2023-04-08T02:27:02;2.83;;;1.90;;
77362;SDS011;66428;47.322;9.432;2023-04-08T02:29:34;2.83;;;2.10;;
77362;SDS011;66428;47.322;9.432;2023-04-08T02:32:04;2.88;;;1.80;;
77362;SDS011;66428;47.322;9.432;2023-04-08T02:34:34;3.78;;;2.00;;
77362;SDS011;66428;47.322;9.432;2023-04-08T02:37:03;3.10;;;1.98;;
77362;SDS011;66428;47.322;9.432;2023-04-08T02:39:32;3.28;;;1.88;;
77362;SDS011;66428;47.322;9.432;2023-04-08T02:42:03;2.83;;;1.80;;
77362;SDS011;66428;47.322;9.432;2023-04-08T02:44:30;3.22;;;1.67;;
77362;SDS011;66428;47.322;9.432;2023-04-08T02:47:03;3.00;;;2.00;;
77362;SDS011;66428;47.322;9.432;2023-04-08T02:49:33;2.80;;;1.58;;
77362;SDS011;66428;47.322;9.432;2023-04-08T02:52:02;2.35;;;1.73;;
77362;SDS011;66428;47.322;9.432;2023-04-08T02:54:31;2.33;;;1.60;;
77362;SDS011;66428;47.322;9.432;2023-04-08T02:57:00;2.35;;;2.00;;
77362;SDS011;66428;47.322;9.432;2023-04-08T02:59:29;1.95;;;1.52;;
77362;SDS011;66428;47.322;9.432;2023-04-08T03:01:58;2.58;;;1.98;;
77362;SDS011;66428;47.322;9.432;2023-04-08T03:04:28;3.08;;;1.70;;
77362;SDS011;66428;47.322;9.432;2023-04-08T03:06:54;2.28;;;1.73;;
77362;SDS011;66428;47.322;9.432;2023-04-08T03:09:23;2.95;;;1.75;;
77362;SDS011;66428;47.322;9.432;2023-04-08T03:11:55;2.65;;;1.85;;
77362;SDS011;66428;47.322;9.432;2023-04-08T03:14:21;2.75;;;1.65;;
77362;SDS011;66428;47.322;9.432;2023-04-08T03:16:50;2.53;;;1.60;;
77362;SDS011;66428;47.322;9.432;2023-04-08T03:19:21;2.28;;;1.55;;
77362;SDS011;66428;47.322;9.432;2023-04-08T03:21:50;2.53;;;1.70;;
77362;SDS011;66428;47.322;9.432;2023-04-08T03:24:17;2.60;;;1.95;;
77362;SDS011;66428;47.322;9.432;2023-04-08T03:26:46;2.53;;;1.73;;
77362;SDS011;66428;47.322;9.432;2023-04-08T03:29:19;2.65;;;1.77;;
77362;SDS011;66428;47.322;9.432;2023-04-08T03:31:46;2.90;;;1.90;;
77362;SDS011;66428;47.322;9.432;2023-04-08T03:34:15;3.10;;;1.80;;
77362;SDS011;66428;47.322;9.432;2023-04-08T03:36:44;2.45;;;1.77;;
77362;SDS011;66428;47.322;9.432;2023-04-08T03:39:10;2.40;;;1.70;;
77362;SDS011;66428;47.322;9.432;2023-04-08T03:41:37;2.58;;;1.58;;
77362;SDS011;66428;47.322;9.432;2023-04-08T03:46:32;2.83;;;1.85;;
77362;SDS011;66428;47.322;9.432;2023-04-08T03:49:06;3.53;;;2.20;;
77362;SDS011;66428;47.322;9.432;2023-04-08T03:51:35;2.47;;;1.70;;
77362;SDS011;66428;47.322;9.432;2023-04-08T03:54:02;2.40;;;1.40;;
77362;SDS011;66428;47.322;9.432;2023-04-08T03:56:28;2.40;;;1.70;;
77362;SDS011;66428;47.322;9.432;2023-04-08T03:58:57;2.80;;;1.80;;
77362;SDS011;66428;47.322;9.432;2023-04-08T04:03:50;2.17;;;1.45;;
77362;SDS011;66428;47.322;9.432;2023-04-08T04:06:17;2.90;;;2.10;;
77362;SDS011;66428;47.322;9.432;2023-04-08T04:08:48;2.60;;;1.70;;
77362;SDS011;66428;47.322;9.432;2023-04-08T04:11:18;2.40;;;1.90;;
77362;SDS011;66428;47.322;9.432;2023-04-08T04:13:44;3.00;;;2.00;;
77362;SDS011;66428;47.322;9.432;2023-04-08T04:16:16;4.32;;;2.15;;
77362;SDS011;66428;47.322;9.432;2023-04-08T04:18:42;2.38;;;1.67;;
77362;SDS011;66428;47.322;9.432;2023-04-08T04:21:11;3.72;;;2.10;;
77362;SDS011;66428;47.322;9.432;2023-04-08T04:23:38;2.90;;;1.88;;
77362;SDS011;66428;47.322;9.432;2023-04-08T04:26:07;3.35;;;1.98;;
77362;SDS011;66428;47.322;9.432;2023-04-08T04:28:37;2.67;;;2.17;;
77362;SDS011;66428;47.322;9.432;2023-04-08T04:31:04;2.70;;;1.92;;
77362;SDS011;66428;47.322;9.432;2023-04-08T04:33:30;2.85;;;1.90;;
77362;SDS011;66428;47.322;9.432;2023-04-08T04:35:59;3.08;;;2.30;;
77362;SDS011;66428;47.322;9.432;2023-04-08T04:38:26;2.97;;;1.90;;
77362;SDS011;66428;47.322;9.432;2023-04-08T04:40:57;2.55;;;2.00;;
77362;SDS011;66428;47.322;9.432;2023-04-08T04:43:24;3.78;;;2.03;;
77362;SDS011;66428;47.322;9.432;2023-04-08T04:45:53;3.67;;;2.15;;
77362;SDS011;66428;47.322;9.432;2023-04-08T04:48:20;3.75;;;1.90;;
77362;SDS011;66428;47.322;9.432;2023-04-08T04:50:53;2.63;;;1.63;;
77362;SDS011;66428;47.322;9.432;2023-04-08T04:53:19;5.03;;;2.20;;
77362;SDS011;66428;47.322;9.432;2023-04-08T04:58:14;3.13;;;1.75;;
77362;SDS011;66428;47.322;9.432;2023-04-08T05:00:43;4.55;;;2.03;;
77362;SDS011;66428;47.322;9.432;2023-04-08T05:03:10;2.42;;;1.73;;
77362;SDS011;66428;47.322;9.432;2023-04-08T05:05:39;2.65;;;2.13;;
77362;SDS011;66428;47.322;9.432;2023-04-08T05:08:08;3.08;;;2.28;;
77362;SDS011;66428;47.322;9.432;2023-04-08T05:10:39;4.45;;;2.92;;
77362;SDS011;66428;47.322;9.432;2023-04-08T05:13:05;5.63;;;3.17;;
77362;SDS011;66428;47.322;9.432;2023-04-08T05:15:35;3.92;;;2.80;;
77362;SDS011;66428;47.322;9.432;2023-04-08T05:18:01;5.07;;;3.50;;
77362;SDS011;66428;47.322;9.432;2023-04-08T05:20:33;4.60;;;2.90;;
77362;SDS011;66428;47.322;9.432;2023-04-08T05:23:02;5.43;;;3.20;;
77362;SDS011;66428;47.322;9.432;2023-04-08T05:27:55;4.47;;;2.83;;
77362;SDS011;66428;47.322;9.432;2023-04-08T05:30:27;4.07;;;2.72;;
77362;SDS011;66428;47.322;9.432;2023-04-08T05:32:56;3.90;;;2.50;;
77362;SDS011;66428;47.322;9.432;2023-04-08T05:35:28;4.07;;;3.15;;
77362;SDS011;66428;47.322;9.432;2023-04-08T05:37:54;3.88;;;2.63;;
77362;SDS011;66428;47.322;9.432;2023-04-08T05:40:23;3.67;;;2.72;;
77362;SDS011;66428;47.322;9.432;2023-04-08T05:45:16;4.20;;;3.05;;
77362;SDS011;66428;47.322;9.432;2023-04-08T05:47:45;4.68;;;3.13;;
77362;SDS011;66428;47.322;9.432;2023-04-08T05:50:12;4.55;;;3.33;;
77362;SDS011;66428;47.322;9.432;2023-04-08T05:52:42;4.13;;;3.17;;
77362;SDS011;66428;47.322;9.432;2023-04-08T05:55:12;3.95;;;2.63;;
77362;SDS011;66428;47.322;9.432;2023-04-08T05:57:39;3.30;;;2.38;;
77362;SDS011;66428;47.322;9.432;2023-04-08T06:00:08;3.65;;;2.58;;
77362;SDS011;66428;47.322;9.432;2023-04-08T06:02:38;3.78;;;2.90;;
77362;SDS011;66428;47.322;9.432;2023-04-08T06:05:07;3.78;;;2.45;;
77362;SDS011;66428;47.322;9.432;2023-04-08T06:07:34;3.83;;;2.72;;
77362;SDS011;66428;47.322;9.432;2023-04-08T06:12:33;3.65;;;2.38;;
77362;SDS011;66428;47.322;9.432;2023-04-08T06:15:00;4.47;;;3.10;;
77362;SDS011;66428;47.322;9.432;2023-04-08T06:17:26;4.38;;;2.58;;
77362;SDS011;66428;47.322;9.432;2023-04-08T06:19:53;3.83;;;2.92;;
77362;SDS011;66428;47.322;9.432;2023-04-08T06:22:19;4.13;;;2.88;;
77362;SDS011;66428;47.322;9.432;2023-04-08T06:24:52;3.63;;;2.80;;
77362;SDS011;66428;47.322;9.432;2023-04-08T06:27:18;4.40;;;3.15;;
77362;SDS011;66428;47.322;9.432;2023-04-08T06:29:45;3.08;;;2.42;;
77362;SDS011;66428;47.322;9.432;2023-04-08T06:32:12;5.20;;;3.33;;
77362;SDS011;66428;47.322;9.432;2023-04-08T06:34:41;4.65;;;2.92;;
77362;SDS011;66428;47.322;9.432;2023-04-08T06:37:12;4.22;;;2.70;;
77362;SDS011;66428;47.322;9.432;2023-04-08T06:39:41;4.35;;;2.47;;
77362;SDS011;66428;47.322;9.432;2023-04-08T06:44:50;3.10;;;2.35;;
77362;SDS011;66428;47.322;9.432;2023-04-08T06:49:45;3.80;;;2.72;;
77362;SDS011;66428;47.322;9.432;2023-04-08T06:52:14;3.72;;;2.80;;
77362;SDS011;66428;47.322;9.432;2023-04-08T06:54:41;3.33;;;2.47;;
77362;SDS011;66428;47.322;9.432;2023-04-08T06:59:34;3.80;;;2.70;;
77362;SDS011;66428;47.322;9.432;2023-04-08T07:02:00;3.67;;;2.85;;
77362;SDS011;66428;47.322;9.432;2023-04-08T07:04:32;3.85;;;2.75;;
77362;SDS011;66428;47.322;9.432;2023-04-08T07:07:03;4.05;;;2.85;;
77362;SDS011;66428;47.322;9.432;2023-04-08T07:09:35;7.53;;;6.30;;
77362;SDS011;66428;47.322;9.432;2023-04-08T07:12:06;5.40;;;3.42;;
77362;SDS011;66428;47.322;9.432;2023-04-08T07:14:35;3.78;;;2.70;;
77362;SDS011;66428;47.322;9.432;2023-04-08T07:17:04;10.25;;;4.65;;
77362;SDS011;66428;47.322;9.432;2023-04-08T07:19:33;7.05;;;4.20;;
77362;SDS011;66428;47.322;9.432;2023-04-08T07:22:00;4.78;;;3.53;;
77362;SDS011;66428;47.322;9.432;2023-04-08T07:24:32;3.95;;;3.17;;
77362;SDS011;66428;47.322;9.432;2023-04-08T07:26:59;3.35;;;2.60;;
77362;SDS011;66428;47.322;9.432;2023-04-08T07:29:28;4.50;;;3.25;;
77362;SDS011;66428;47.322;9.432;2023-04-08T07:32:00;5.93;;;3.53;;
77362;SDS011;66428;47.322;9.432;2023-04-08T07:34:26;6.80;;;4.38;;
77362;SDS011;66428;47.322;9.432;2023-04-08T07:36:52;5.65;;;4.05;;
77362;SDS011;66428;47.322;9.432;2023-04-08T07:39:19;4.65;;;3.15;;
77362;SDS011;66428;47.322;9.432;2023-04-08T07:41:45;5.47;;;3.13;;
77362;SDS011;66428;47.322;9.432;2023-04-08T07:44:12;4.95;;;3.35;;
77362;SDS011;66428;47.322;9.432;2023-04-08T07:46:42;4.75;;;3.63;;
77362;SDS011;66428;47.322;9.432;2023-04-08T07:49:11;6.07;;;3.30;;
77362;SDS011;66428;47.322;9.432;2023-04-08T07:51:38;5.28;;;3.30;;
77362;SDS011;66428;47.322;9.432;2023-04-08T07:54:04;5.18;;;3.45;;
77362;SDS011;66428;47.322;9.432;2023-04-08T07:56:33;5.18;;;3.33;;
77362;SDS011;66428;47.322;9.432;2023-04-08T07:59:00;5.13;;;3.45;;
77362;SDS011;66428;47.322;9.432;2023-04-08T08:03:56;4.55;;;3.15;;
77362;SDS011;66428;47.322;9.432;2023-04-08T08:06:24;6.43;;;3.53;;
77362;SDS011;66428;47.322;9.432;2023-04-08T08:08:51;4.30;;;2.90;;
77362;SDS011;66428;47.322;9.432;2023-04-08T08:11:19;6.15;;;3.45;;
77362;SDS011;66428;47.322;9.432;2023-04-08T08:13:49;5.70;;;3.40;;
77362;SDS011;66428;47.322;9.432;2023-04-08T08:16:16;5.88;;;3.38;;
77362;SDS011;66428;47.322;9.432;2023-04-08T08:21:13;4.80;;;2.90;;
77362;SDS011;66428;47.322;9.432;2023-04-08T08:23:44;5.20;;;3.00;;
77362;SDS011;66428;47.322;9.432;2023-04-08T08:26:11;5.50;;;3.65;;
77362;SDS011;66428;47.322;9.432;2023-04-08T08:28:45;6.18;;;4.35;;
77362;SDS011;66428;47.322;9.432;2023-04-08T08:31:14;5.53;;;3.50;;
77362;SDS011;66428;47.322;9.432;2023-04-08T08:33:43;4.45;;;3.22;;
77362;SDS011;66428;47.322;9.432;2023-04-08T08:38:38;5.72;;;3.75;;
77362;SDS011;66428;47.322;9.432;2023-04-08T08:43:31;5.57;;;3.72;;
77362;SDS011;66428;47.322;9.432;2023-04-08T08:46:01;4.20;;;3.42;;
77362;SDS011;66428;47.322;9.432;2023-04-08T08:48:31;5.13;;;3.20;;
77362;SDS011;66428;47.322;9.432;2023-04-08T08:51:00;6.68;;;4.00;;
77362;SDS011;66428;47.322;9.432;2023-04-08T08:53:29;5.18;;;3.60;;
77362;SDS011;66428;47.322;9.432;2023-04-08T08:56:01;6.03;;;3.88;;
77362;SDS011;66428;47.322;9.432;2023-04-08T08:58:31;4.53;;;3.22;;
77362;SDS011;66428;47.322;9.432;2023-04-08T09:01:00;4.65;;;3.15;;
77362;SDS011;66428;47.322;9.432;2023-04-08T09:03:27;3.92;;;2.85;;
77362;SDS011;66428;47.322;9.432;2023-04-08T09:05:57;4.97;;;3.30;;
77362;SDS011;66428;47.322;9.432;2023-04-08T09:08:25;4.25;;;3.22;;
77362;SDS011;66428;47.322;9.432;2023-04-08T09:10:55;6.55;;;3.72;;
77362;SDS011;66428;47.322;9.432;2023-04-08T09:13:24;5.18;;;3.15;;
77362;SDS011;66428;47.322;9.432;2023-04-08T09:16:05;4.50;;;3.20;;
77362;SDS011;66428;47.322;9.432;2023-04-08T09:18:32;4.45;;;3.00;;
77362;SDS011;66428;47.322;9.432;2023-04-08T09:21:02;3.25;;;2.33;;
77362;SDS011;66428;47.322;9.432;2023-04-08T09:28:38;2.70;;;2.03;;
77362;SDS011;66428;47.322;9.432;2023-04-08T09:31:18;3.47;;;2.10;;
77362;SDS011;66428;47.322;9.432;2023-04-08T09:33:48;3.45;;;2.05;;
77362;SDS011;66428;47.322;9.432;2023-04-08T09:36:21;2.70;;;2.00;;
77362;SDS011;66428;47.322;9.432;2023-04-08T09:38:47;3.20;;;1.98;;
77362;SDS011;66428;47.322;9.432;2023-04-08T09:41:18;3.38;;;2.40;;
77362;SDS011;66428;47.322;9.432;2023-04-08T09:43:52;3.08;;;2.38;;
77362;SDS011;66428;47.322;9.432;2023-04-08T09:46:25;3.83;;;2.58;;
77362;SDS011;66428;47.322;9.432;2023-04-08T09:48:55;3.13;;;2.10;;
77362;SDS011;66428;47.322;9.432;2023-04-08T09:51:25;3.38;;;2.30;;
77362;SDS011;66428;47.322;9.432;2023-04-08T09:53:55;4.43;;;3.10;;
77362;SDS011;66428;47.322;9.432;2023-04-08T09:56:23;6.18;;;3.40;;
77362;SDS011;66428;47.322;9.432;2023-04-08T09:58:57;4.50;;;3.05;;
77362;SDS011;66428;47.322;9.432;2023-04-08T10:01:39;4.85;;;3.15;;
77362;SDS011;66428;47.322;9.432;2023-04-08T10:04:11;6.32;;;3.33;;
77362;SDS011;66428;47.322;9.432;2023-04-08T10:06:39;9.32;;;5.57;;
77362;SDS011;66428;47.322;9.432;2023-04-08T10:09:08;13.90;;;8.68;;
77362;SDS011;66428;47.322;9.432;2023-04-08T10:11:37;8.73;;;6.97;;
77362;SDS011;66428;47.322;9.432;2023-04-08T10:14:08;7.10;;;5.88;;
77362;SDS011;66428;47.322;9.432;2023-04-08T10:16:34;4.53;;;2.80;;
77362;SDS011;66428;47.322;9.432;2023-04-08T10:19:35;4.80;;;3.22;;
77362;SDS011;66428;47.322;9.432;2023-04-08T10:21:57;4.45;;;2.92;;
77362;SDS011;66428;47.322;9.432;2023-04-08T10:24:26;5.55;;;3.67;;
77362;SDS011;66428;47.322;9.432;2023-04-08T10:26:55;4.78;;;3.55;;
77362;SDS011;66428;47.322;9.432;2023-04-08T10:31:56;5.50;;;3.60;;
77362;SDS011;66428;47.322;9.432;2023-04-08T10:34:23;6.70;;;3.17;;
77362;SDS011;66428;47.322;9.432;2023-04-08T10:36:52;4.03;;;2.83;;
77362;SDS011;66428;47.322;9.432;2023-04-08T10:39:23;5.43;;;3.40;;
77362;SDS011;66428;47.322;9.432;2023-04-08T10:41:52;4.10;;;2.97;;
77362;SDS011;66428;47.322;9.432;2023-04-08T10:44:20;4.78;;;3.17;;
77362;SDS011;66428;47.322;9.432;2023-04-08T10:46:47;4.53;;;3.05;;
77362;SDS011;66428;47.322;9.432;2023-04-08T10:49:16;6.10;;;3.92;;
77362;SDS011;66428;47.322;9.432;2023-04-08T10:51:44;5.30;;;3.63;;
77362;SDS011;66428;47.322;9.432;2023-04-08T10:54:14;5.93;;;3.70;;
77362;SDS011;66428;47.322;9.432;2023-04-08T10:56:48;6.15;;;4.32;;
77362;SDS011;66428;47.322;9.432;2023-04-08T10:59:26;6.43;;;4.18;;
77362;SDS011;66428;47.322;9.432;2023-04-08T11:01:55;6.47;;;3.67;;
77362;SDS011;66428;47.322;9.432;2023-04-08T11:04:25;5.72;;;3.67;;
77362;SDS011;66428;47.322;9.432;2023-04-08T11:06:57;6.05;;;4.20;;
77362;SDS011;66428;47.322;9.432;2023-04-08T11:09:32;7.57;;;4.05;;
77362;SDS011;66428;47.322;9.432;2023-04-08T11:11:59;8.07;;;4.22;;
77362;SDS011;66428;47.322;9.432;2023-04-08T11:14:31;7.20;;;4.18;;
77362;SDS011;66428;47.322;9.432;2023-04-08T11:16:58;6.68;;;4.45;;
77362;SDS011;66428;47.322;9.432;2023-04-08T11:19:29;6.95;;;4.35;;
77362;SDS011;66428;47.322;9.432;2023-04-08T11:21:56;6.75;;;3.75;;
77362;SDS011;66428;47.322;9.432;2023-04-08T11:24:23;5.95;;;4.00;;
77362;SDS011;66428;47.322;9.432;2023-04-08T11:26:52;8.30;;;4.80;;
77362;SDS011;66428;47.322;9.432;2023-04-08T11:29:22;7.65;;;4.68;;
77362;SDS011;66428;47.322;9.432;2023-04-08T11:31:51;6.50;;;4.38;;
77362;SDS011;66428;47.322;9.432;2023-04-08T11:34:22;7.75;;;4.88;;
77362;SDS011;66428;47.322;9.432;2023-04-08T11:36:52;9.90;;;5.20;;
77362;SDS011;66428;47.322;9.432;2023-04-08T11:41:45;9.80;;;5.25;;
77362;SDS011;66428;47.322;9.432;2023-04-08T11:44:12;8.90;;;5.72;;
77362;SDS011;66428;47.322;9.432;2023-04-08T11:46:49;7.28;;;4.63;;
77362;SDS011;66428;47.322;9.432;2023-04-08T11:49:20;6.85;;;5.03;;
77362;SDS011;66428;47.322;9.432;2023-04-08T11:54:24;6.72;;;4.22;;
77362;SDS011;66428;47.322;9.432;2023-04-08T11:56:56;6.57;;;5.00;;
77362;SDS011;66428;47.322;9.432;2023-04-08T11:59:28;7.40;;;5.30;;
77362;SDS011;66428;47.322;9.432;2023-04-08T12:01:55;7.35;;;5.18;;
77362;SDS011;66428;47.322;9.432;2023-04-08T12:04:22;7.28;;;4.68;;
77362;SDS011;66428;47.322;9.432;2023-04-08T12:06:51;8.00;;;5.45;;
77362;SDS011;66428;47.322;9.432;2023-04-08T12:09:18;7.97;;;5.40;;
77362;SDS011;66428;47.322;9.432;2023-04-08T12:11:47;7.55;;;4.97;;
77362;SDS011;66428;47.322;9.432;2023-04-08T12:14:13;9.15;;;6.53;;
77362;SDS011;66428;47.322;9.432;2023-04-08T12:16:40;10.00;;;5.97;;
77362;SDS011;66428;47.322;9.432;2023-04-08T12:19:07;10.13;;;5.82;;
77362;SDS011;66428;47.322;9.432;2023-04-08T12:21:36;8.68;;;5.75;;
77362;SDS011;66428;47.322;9.432;2023-04-08T12:24:07;9.02;;;6.18;;
77362;SDS011;66428;47.322;9.432;2023-04-08T12:26:36;9.23;;;5.82;;
77362;SDS011;66428;47.322;9.432;2023-04-08T12:29:05;10.57;;;5.95;;
77362;SDS011;66428;47.322;9.432;2023-04-08T12:31:36;8.63;;;5.32;;
77362;SDS011;66428;47.322;9.432;2023-04-08T12:34:05;9.13;;;6.00;;
77362;SDS011;66428;47.322;9.432;2023-04-08T12:36:32;9.55;;;5.78;;
77362;SDS011;66428;47.322;9.432;2023-04-08T12:39:04;9.80;;;5.20;;
77362;SDS011;66428;47.322;9.432;2023-04-08T12:41:30;11.27;;;5.18;;
77362;SDS011;66428;47.322;9.432;2023-04-08T12:43:57;8.70;;;5.63;;
77362;SDS011;66428;47.322;9.432;2023-04-08T12:46:23;8.85;;;5.50;;
77362;SDS011;66428;47.322;9.432;2023-04-08T12:48:50;8.95;;;5.38;;
77362;SDS011;66428;47.322;9.432;2023-04-08T12:51:29;7.30;;;5.47;;
77362;SDS011;66428;47.322;9.432;2023-04-08T12:54:01;7.05;;;4.72;;
77362;SDS011;66428;47.322;9.432;2023-04-08T12:56:32;8.93;;;5.95;;
77362;SDS011;66428;47.322;9.432;2023-04-08T12:58:59;8.20;;;5.47;;
77362;SDS011;66428;47.322;9.432;2023-04-08T13:01:26;9.60;;;6.18;;
77362;SDS011;66428;47.322;9.432;2023-04-08T13:03:58;8.90;;;6.13;;
77362;SDS011;66428;47.322;9.432;2023-04-08T13:06:28;9.75;;;6.05;;
77362;SDS011;66428;47.322;9.432;2023-04-08T13:08:54;9.32;;;5.93;;
77362;SDS011;66428;47.322;9.432;2023-04-08T13:11:29;10.77;;;6.20;;
77362;SDS011;66428;47.322;9.432;2023-04-08T13:13:56;12.10;;;7.13;;
77362;SDS011;66428;47.322;9.432;2023-04-08T13:16:22;11.30;;;6.70;;
77362;SDS011;66428;47.322;9.432;2023-04-08T13:18:49;9.38;;;5.72;;
77362;SDS011;66428;47.322;9.432;2023-04-08T13:21:19;7.32;;;5.03;;
77362;SDS011;66428;47.322;9.432;2023-04-08T13:23:48;8.48;;;5.47;;
77362;SDS011;66428;47.322;9.432;2023-04-08T13:26:17;10.13;;;6.75;;
77362;SDS011;66428;47.322;9.432;2023-04-08T13:28:43;8.35;;;5.82;;
77362;SDS011;66428;47.322;9.432;2023-04-08T13:31:15;11.00;;;6.78;;
77362;SDS011;66428;47.322;9.432;2023-04-08T13:36:08;8.50;;;5.03;;
77362;SDS011;66428;47.322;9.432;2023-04-08T13:38:37;9.20;;;4.75;;
77362;SDS011;66428;47.322;9.432;2023-04-08T13:41:08;16.48;;;6.13;;
77362;SDS011;66428;47.322;9.432;2023-04-08T13:43:39;7.97;;;5.30;;
77362;SDS011;66428;47.322;9.432;2023-04-08T13:46:07;7.70;;;4.95;;
77362;SDS011;66428;47.322;9.432;2023-04-08T13:51:05;6.88;;;4.32;;
77362;SDS011;66428;47.322;9.432;2023-04-08T13:53:36;6.70;;;4.75;;
77362;SDS011;66428;47.322;9.432;2023-04-08T13:56:07;6.70;;;5.03;;
77362;SDS011;66428;47.322;9.432;2023-04-08T13:58:36;7.40;;;4.75;;
77362;SDS011;66428;47.322;9.432;2023-04-08T14:03:29;8.27;;;6.00;;
77362;SDS011;66428;47.322;9.432;2023-04-08T14:05:55;9.68;;;6.20;;
77362;SDS011;66428;47.322;9.432;2023-04-08T14:08:24;11.07;;;6.95;;
77362;SDS011;66428;47.322;9.432;2023-04-08T14:11:01;11.13;;;6.75;;
77362;SDS011;66428;47.322;9.432;2023-04-08T14:13:30;11.48;;;8.10;;
77362;SDS011;66428;47.322;9.432;2023-04-08T14:15:57;9.73;;;6.78;;
77362;SDS011;66428;47.322;9.432;2023-04-08T14:18:26;11.40;;;7.45;;
77362;SDS011;66428;47.322;9.432;2023-04-08T14:20:56;7.55;;;4.80;;
77362;SDS011;66428;47.322;9.432;2023-04-08T14:23:27;6.65;;;4.63;;
77362;SDS011;66428;47.322;9.432;2023-04-08T14:25:56;7.35;;;5.28;;
77362;SDS011;66428;47.322;9.432;2023-04-08T14:28:29;6.68;;;4.97;;
77362;SDS011;66428;47.322;9.432;2023-04-08T14:33:24;8.00;;;6.28;;
77362;SDS011;66428;47.322;9.432;2023-04-08T14:35:53;6.88;;;5.05;;
77362;SDS011;66428;47.322;9.432;2023-04-08T14:38:22;7.10;;;4.63;;
77362;SDS011;66428;47.322;9.432;2023-04-08T14:43:15;5.72;;;4.00;;
77362;SDS011;66428;47.322;9.432;2023-04-08T14:48:13;5.95;;;3.97;;
77362;SDS011;66428;47.322;9.432;2023-04-08T14:53:06;6.13;;;4.22;;
77362;SDS011;66428;47.322;9.432;2023-04-08T14:55:33;6.03;;;4.35;;
77362;SDS011;66428;47.322;9.432;2023-04-08T15:00:26;6.13;;;4.15;;
77362;SDS011;66428;47.322;9.432;2023-04-08T15:02:55;5.78;;;3.65;;
77362;SDS011;66428;47.322;9.432;2023-04-08T15:05:24;7.15;;;4.50;;
77362;SDS011;66428;47.322;9.432;2023-04-08T15:07:53;6.07;;;4.32;;
77362;SDS011;66428;47.322;9.432;2023-04-08T15:12:46;7.03;;;4.63;;
77362;SDS011;66428;47.322;9.432;2023-04-08T15:15:15;7.20;;;5.20;;
77362;SDS011;66428;47.322;9.432;2023-04-08T15:17:44;6.28;;;4.70;;
77362;SDS011;66428;47.322;9.432;2023-04-08T15:20:18;8.23;;;5.40;;
77362;SDS011;66428;47.322;9.432;2023-04-08T15:22:45;6.78;;;5.22;;
77362;SDS011;66428;47.322;9.432;2023-04-08T15:25:14;7.40;;;5.40;;
77362;SDS011;66428;47.322;9.432;2023-04-08T15:27:40;7.72;;;5.38;;
77362;SDS011;66428;47.322;9.432;2023-04-08T15:30:08;8.13;;;5.70;;
77362;SDS011;66428;47.322;9.432;2023-04-08T15:32:37;7.63;;;5.15;;
77362;SDS011;66428;47.322;9.432;2023-04-08T15:35:04;8.40;;;5.43;;
77362;SDS011;66428;47.322;9.432;2023-04-08T15:37:33;8.52;;;5.38;;
77362;SDS011;66428;47.322;9.432;2023-04-08T15:40:01;7.28;;;4.60;;
77362;SDS011;66428;47.322;9.432;2023-04-08T15:42:30;6.20;;;4.38;;
77362;SDS011;66428;47.322;9.432;2023-04-08T15:45:01;7.72;;;4.65;;
77362;SDS011;66428;47.322;9.432;2023-04-08T15:47:28;9.30;;;5.30;;
77362;SDS011;66428;47.322;9.432;2023-04-08T15:49:55;7.65;;;5.28;;
77362;SDS011;66428;47.322;9.432;2023-04-08T15:52:21;7.93;;;5.97;;
77362;SDS011;66428;47.322;9.432;2023-04-08T15:57:16;7.53;;;5.13;;
77362;SDS011;66428;47.322;9.432;2023-04-08T15:59:47;8.57;;;5.68;;
77362;SDS011;66428;47.322;9.432;2023-04-08T16:04:40;7.68;;;5.07;;
77362;SDS011;66428;47.322;9.432;2023-04-08T16:07:10;8.57;;;5.78;;
77362;SDS011;66428;47.322;9.432;2023-04-08T16:09:38;7.85;;;5.18;;
77362;SDS011;66428;47.322;9.432;2023-04-08T16:12:07;8.07;;;5.45;;
77362;SDS011;66428;47.322;9.432;2023-04-08T16:14:39;8.20;;;5.80;;
77362;SDS011;66428;47.322;9.432;2023-04-08T16:17:08;8.45;;;5.25;;
77362;SDS011;66428;47.322;9.432;2023-04-08T16:19:34;9.43;;;5.40;;
77362;SDS011;66428;47.322;9.432;2023-04-08T16:22:06;6.28;;;4.65;;
77362;SDS011;66428;47.322;9.432;2023-04-08T16:24:35;8.48;;;5.18;;